createdAt,value
2022-11-26T08:11:22.237Z,21.85
2022-11-26T08:12:53.880Z,24.35
2022-11-26T08:14:25.613Z,26.77
2022-11-26T08:15:57.320Z,26.27
2022-11-26T08:17:28.914Z,24.98
2022-11-26T08:19:04.669Z,23.67
2022-11-26T08:20:36.274Z,21.13
2022-11-26T08:22:07.846Z,21.58
2022-11-26T08:23:40.277Z,24.77
2022-11-26T08:25:11.943Z,18.35
2022-11-26T08:26:44.714Z,20.77
2022-11-26T08:28:16.442Z,18.75
2022-11-26T08:29:48.114Z,19.95
2022-11-26T08:31:19.902Z,16.35
2022-11-26T08:32:51.550Z,14.88
2022-11-26T08:34:23.228Z,18.58
2022-11-26T08:36:06.520Z,13.82
2022-11-26T08:37:39.415Z,14.98
2022-11-26T08:39:14.599Z,18.80
2022-11-26T08:40:46.652Z,30.25
2022-11-26T08:42:18.696Z,27.63
2022-11-26T08:44:07.439Z,32.28
2022-11-26T08:45:39.807Z,36.67
2022-11-26T08:47:11.445Z,38.40
2022-11-26T08:48:43.198Z,36.05
2022-11-26T08:50:15.974Z,34.85
2022-11-26T08:51:47.622Z,34.40
2022-11-26T08:53:19.220Z,37.00
2022-11-26T08:54:51.150Z,33.65
2022-11-26T08:56:23.163Z,48.67
2022-11-26T08:57:54.760Z,50.78
2022-11-26T08:59:26.352Z,60.55
2022-11-26T09:00:58.042Z,47.28
2022-11-26T09:02:29.710Z,53.28
2022-11-26T09:04:03.690Z,63.17
2022-11-26T09:05:36.035Z,45.78
2022-11-26T09:07:08.044Z,40.38
2022-11-26T09:08:58.062Z,40.15
2022-11-26T09:10:29.684Z,45.85
2022-11-26T09:12:02.321Z,35.85
2022-11-26T09:13:33.997Z,39.22
2022-11-26T09:15:06.013Z,40.10
2022-11-26T09:16:38.030Z,37.13
2022-11-26T09:18:09.988Z,31.63
2022-11-26T09:19:42.028Z,37.47
2022-11-26T09:21:13.633Z,39.50
2022-11-26T09:22:45.259Z,40.20
2022-11-26T09:24:17.561Z,37.15
2022-11-26T09:25:50.736Z,34.78
2022-11-26T09:27:22.406Z,31.75
2022-11-26T09:28:53.955Z,32.53
2022-11-26T09:30:25.757Z,23.67
2022-11-26T09:33:49.012Z,23.65
2022-11-26T09:35:20.583Z,25.75
2022-11-26T09:36:52.196Z,25.85
2022-11-26T09:38:23.856Z,24.90
2022-11-26T09:39:55.491Z,25.38
2022-11-26T09:41:49.496Z,26.50
2022-11-26T09:43:38.361Z,34.22
2022-11-26T09:47:12.526Z,37.28
2022-11-26T09:48:44.928Z,39.58
2022-11-26T09:50:16.495Z,35.53
2022-11-26T09:51:53.193Z,34.20
2022-11-26T09:53:30.031Z,33.03
2022-11-26T09:55:20.908Z,28.08
2022-11-26T09:57:07.370Z,26.20
2022-11-26T09:58:47.653Z,29.27
2022-11-26T10:00:30.321Z,27.02
2022-11-26T10:02:02.148Z,28.15
2022-11-26T10:03:38.205Z,25.25
2022-11-26T10:05:15.953Z,28.45
2022-11-26T10:07:00.131Z,22.73
2022-11-26T10:09:09.009Z,18.00
2022-11-26T10:11:01.187Z,17.60
2022-11-26T10:13:11.265Z,17.55
2022-11-26T10:15:02.711Z,18.52
2022-11-26T10:16:40.272Z,18.50
2022-11-26T10:18:25.915Z,18.00
2022-11-26T10:20:28.602Z,13.73
2022-11-26T10:22:05.770Z,18.45
2022-11-26T10:23:45.477Z,20.67
2022-11-26T10:25:24.779Z,11.65
2022-11-26T10:26:59.816Z,12.52
2022-11-26T10:28:43.501Z,9.60
2022-11-26T10:30:25.380Z,11.50
2022-11-26T10:32:01.901Z,12.32
2022-11-26T10:34:21.155Z,14.43
2022-11-26T10:35:52.867Z,16.20
2022-11-26T10:37:26.842Z,16.83
2022-11-26T10:38:58.445Z,10.85
2022-11-26T10:40:31.925Z,16.10
2022-11-26T10:42:12.510Z,13.23
2022-11-26T10:43:44.163Z,15.73
2022-11-26T10:45:35.669Z,12.25
2022-11-26T10:47:25.901Z,12.10
2022-11-26T10:49:16.918Z,14.20
2022-11-26T10:51:28.375Z,12.82
2022-11-26T10:53:05.922Z,12.50
2022-11-26T10:54:39.495Z,12.02
2022-11-26T10:56:18.636Z,11.95
2022-11-26T10:58:22.218Z,10.13
2022-11-26T10:59:54.551Z,15.57
2022-11-26T11:01:38.436Z,13.38
2022-11-26T11:04:06.254Z,13.20
2022-11-26T11:05:22.931Z,11.68
2022-11-26T11:06:55.008Z,12.10
2022-11-26T11:08:31.774Z,12.70
2022-11-26T11:10:09.518Z,14.23
2022-11-26T11:11:41.147Z,11.38
2022-11-26T11:13:13.359Z,12.80
2022-11-26T11:14:46.911Z,12.93
2022-11-26T11:16:40.910Z,12.20
2022-11-26T11:18:12.529Z,15.32
2022-11-26T11:19:44.166Z,12.25
2022-11-26T11:21:18.698Z,12.52
2022-11-26T11:22:58.278Z,14.82
2022-11-26T11:24:30.035Z,13.88
2022-11-26T11:26:23.664Z,12.05
2022-11-26T11:28:02.231Z,16.52
2022-11-26T11:29:38.235Z,14.27
2022-11-26T11:32:45.908Z,13.18
2022-11-26T11:34:32.644Z,13.13
2022-11-26T11:36:27.410Z,14.90
2022-11-26T11:37:59.474Z,15.88
2022-11-26T11:39:33.668Z,15.38
2022-11-26T11:41:16.182Z,15.27
2022-11-26T11:42:54.640Z,10.25
2022-11-26T11:44:47.709Z,11.80
2022-11-26T11:46:28.147Z,14.20
2022-11-26T11:48:24.223Z,12.93
2022-11-26T11:50:16.270Z,8.88
2022-11-26T11:52:29.376Z,9.00
2022-11-26T11:54:20.166Z,13.15
2022-11-26T11:56:02.287Z,9.95
2022-11-26T11:58:04.890Z,12.60
2022-11-26T11:59:58.318Z,13.45
2022-11-26T12:02:14.681Z,9.88
2022-11-26T12:03:58.308Z,15.20
2022-11-26T12:05:41.541Z,8.95
2022-11-26T12:07:31.958Z,11.27
2022-11-26T12:09:18.575Z,7.72
2022-11-26T12:10:56.063Z,12.95
2022-11-26T12:12:27.748Z,11.48
2022-11-26T12:14:11.238Z,9.68
2022-11-26T12:15:55.291Z,12.15
2022-11-26T12:17:43.753Z,11.65
2022-11-26T12:19:18.251Z,10.20
2022-11-26T12:20:52.406Z,16.02
2022-11-26T12:22:29.837Z,13.65
2022-11-26T12:24:15.476Z,6.25
2022-11-26T12:25:54.055Z,13.55
2022-11-26T12:27:40.208Z,9.73
2022-11-26T12:29:24.005Z,7.75
2022-11-26T12:31:02.901Z,10.82
2022-11-26T12:32:49.264Z,14.00
2022-11-26T12:34:44.555Z,15.82
2022-11-26T12:36:43.331Z,7.72
2022-11-26T12:38:44.156Z,10.48
2022-11-26T12:40:37.916Z,11.38
2022-11-26T12:42:19.601Z,11.50
2022-11-26T12:44:13.579Z,11.48
2022-11-26T12:46:02.999Z,8.90
2022-11-26T12:47:40.849Z,13.07
2022-11-26T12:49:27.714Z,11.73
2022-11-26T12:51:10.669Z,11.02
2022-11-26T12:52:42.277Z,6.53
2022-11-26T12:54:13.775Z,12.85
2022-11-26T12:56:01.417Z,15.88
2022-11-26T12:57:39.708Z,11.85
2022-11-26T12:59:29.374Z,14.55
2022-11-26T13:01:00.990Z,11.85
2022-11-26T13:02:37.015Z,12.75
2022-11-26T13:06:14.522Z,9.25
2022-11-26T13:07:51.859Z,10.55
2022-11-26T13:09:26.336Z,11.07
2022-11-26T13:11:22.322Z,13.13
2022-11-26T13:13:02.143Z,11.85
2022-11-26T13:14:54.979Z,9.23
2022-11-26T13:16:39.095Z,12.35
2022-11-26T13:18:39.379Z,6.28
2022-11-26T13:20:35.296Z,11.50
2022-11-26T13:22:34.899Z,8.23
2022-11-26T13:24:43.175Z,13.35
2022-11-26T13:26:23.852Z,12.77
2022-11-26T13:28:21.628Z,17.30
2022-11-26T13:30:11.821Z,15.18
2022-11-26T13:31:49.382Z,10.23
2022-11-26T13:34:35.261Z,13.18
2022-11-26T13:36:06.896Z,13.48
2022-11-26T13:38:15.944Z,12.30
2022-11-26T13:40:08.508Z,8.00
2022-11-26T13:42:07.865Z,11.80
2022-11-26T13:43:42.104Z,14.10
2022-11-26T13:45:34.058Z,18.42
2022-11-26T13:47:14.549Z,8.00
2022-11-26T13:49:04.374Z,9.32
2022-11-26T13:50:49.378Z,14.23
2022-11-26T13:52:26.726Z,17.40
2022-11-26T13:54:25.487Z,12.20
2022-11-26T13:56:03.374Z,13.80
2022-11-26T13:57:48.816Z,9.88
2022-11-26T13:59:28.365Z,15.48
2022-11-26T14:01:36.912Z,13.10
2022-11-26T14:03:39.728Z,11.75
2022-11-26T14:05:16.374Z,11.80
2022-11-26T14:07:06.163Z,11.63
2022-11-26T14:08:49.529Z,12.63
2022-11-26T14:10:36.963Z,15.57
2022-11-26T14:12:19.778Z,14.18
2022-11-26T14:14:26.324Z,13.18
2022-11-26T14:16:05.353Z,9.50
2022-11-26T14:17:56.770Z,10.80
2022-11-26T14:19:48.657Z,10.45
2022-11-26T14:21:52.288Z,6.75
2022-11-26T14:23:45.613Z,15.65
2022-11-26T14:25:37.882Z,7.22
2022-11-26T14:27:09.477Z,11.63
2022-11-26T14:28:41.530Z,11.60
2022-11-26T14:30:13.315Z,10.02
2022-11-26T14:31:53.673Z,11.15
2022-11-26T14:33:28.138Z,12.80
2022-11-26T14:34:59.712Z,12.82
2022-11-26T14:36:31.600Z,11.77
2022-11-26T14:38:06.186Z,15.43
2022-11-26T14:39:37.748Z,9.55
2022-11-26T14:41:09.357Z,8.27
2022-11-26T14:42:41.159Z,14.20
2022-11-26T14:44:15.165Z,13.02
2022-11-26T14:45:48.753Z,12.00
2022-11-26T14:47:22.012Z,8.70
2022-11-26T14:48:59.735Z,11.68
2022-11-26T14:50:33.649Z,14.55
2022-11-26T14:52:16.149Z,15.15
2022-11-26T14:53:50.280Z,10.02
2022-11-26T14:55:27.839Z,8.68
2022-11-26T14:57:07.415Z,9.68
2022-11-26T14:58:45.938Z,8.35
2022-11-26T15:00:17.444Z,13.05
2022-11-26T15:01:49.062Z,10.38
2022-11-26T15:03:25.403Z,13.43
2022-11-26T15:05:21.215Z,9.27
2022-11-26T15:06:53.014Z,13.02
2022-11-26T15:08:27.017Z,7.47
2022-11-26T15:10:19.971Z,7.38
2022-11-26T15:11:58.160Z,12.18
2022-11-26T15:13:36.525Z,13.07
2022-11-26T15:15:18.349Z,11.70
2022-11-26T15:16:56.657Z,21.58
2022-11-26T15:18:31.521Z,18.52
2022-11-26T15:20:08.315Z,19.23
2022-11-26T15:21:40.700Z,14.73
2022-11-26T15:23:18.693Z,10.40
2022-11-26T15:24:52.221Z,13.15
2022-11-26T15:26:27.812Z,11.90
2022-11-26T15:27:59.316Z,14.45
2022-11-26T15:29:36.888Z,18.67
2022-11-26T15:31:08.896Z,15.60
2022-11-26T15:32:40.569Z,17.10
2022-11-26T15:34:13.375Z,15.35
2022-11-26T15:35:45.086Z,14.43
2022-11-26T15:37:16.747Z,14.95
2022-11-26T15:39:03.934Z,13.77
2022-11-26T15:40:54.464Z,13.32
2022-11-26T15:42:30.614Z,12.68
2022-11-26T15:44:02.351Z,17.00
2022-11-26T15:45:40.451Z,10.07
2022-11-26T15:47:24.470Z,14.48
2022-11-26T15:49:00.416Z,13.93
2022-11-26T15:52:11.870Z,9.43
2022-11-26T15:53:48.709Z,20.80
2022-11-26T15:55:26.248Z,12.20
2022-11-26T15:57:17.930Z,21.48
2022-11-26T15:58:54.356Z,15.52
2022-11-26T16:00:38.403Z,16.67
2022-11-26T16:02:19.370Z,14.00
2022-11-26T16:03:52.908Z,20.20
2022-11-26T16:05:33.492Z,17.80
2022-11-26T16:07:09.054Z,18.45
2022-11-26T16:08:59.369Z,17.02
2022-11-26T16:10:36.747Z,13.82
2022-11-26T16:12:44.993Z,13.88
2022-11-26T16:14:30.783Z,16.52
2022-11-26T16:16:21.450Z,11.90
2022-11-26T16:17:53.634Z,17.00
2022-11-26T16:19:28.641Z,16.60
2022-11-26T16:21:18.505Z,42.40
2022-11-26T16:22:52.696Z,16.30
2022-11-26T16:24:43.587Z,16.83
2022-11-26T16:26:19.398Z,17.77
2022-11-26T16:28:03.324Z,18.27
2022-11-26T16:29:36.146Z,28.70
2022-11-26T16:31:08.207Z,20.48
2022-11-26T16:32:39.873Z,15.80
2022-11-26T16:34:11.744Z,15.95
2022-11-26T16:35:46.142Z,17.10
2022-11-26T16:37:27.162Z,17.73
2022-11-26T16:38:58.768Z,15.60
2022-11-26T16:40:30.460Z,19.40
2022-11-26T16:42:02.050Z,19.10
2022-11-26T16:43:33.593Z,21.63
2022-11-26T16:45:05.841Z,17.15
2022-11-26T16:46:39.038Z,23.38
2022-11-26T16:48:26.091Z,15.27
2022-11-26T16:49:57.921Z,18.60
2022-11-26T16:51:29.658Z,15.27
2022-11-26T16:53:01.236Z,17.50
2022-11-26T16:54:32.763Z,26.48
2022-11-26T16:56:05.409Z,16.15
2022-11-26T16:57:38.238Z,18.60
2022-11-26T16:59:24.062Z,23.58
2022-11-26T17:00:56.779Z,17.30
2022-11-26T17:02:28.538Z,15.93
2022-11-26T17:04:00.222Z,20.48
2022-11-26T17:05:31.775Z,21.30
2022-11-26T17:07:03.395Z,18.85
2022-11-26T17:08:35.222Z,21.75
2022-11-26T17:10:10.673Z,25.95
2022-11-26T17:11:42.277Z,23.20
2022-11-26T17:13:17.722Z,25.40
2022-11-26T17:14:49.724Z,28.65
2022-11-26T17:16:22.929Z,29.77
2022-11-26T17:18:01.917Z,20.90
2022-11-26T17:19:33.510Z,29.08
2022-11-26T17:21:05.157Z,23.75
2022-11-26T17:22:36.680Z,26.52
2022-11-26T17:24:08.352Z,24.25
2022-11-26T17:25:39.984Z,26.10
2022-11-26T17:27:14.986Z,23.13
2022-11-26T17:28:47.000Z,28.10
2022-11-26T17:30:24.179Z,27.77
2022-11-26T17:31:55.828Z,28.10
2022-11-26T17:33:27.475Z,25.20
2022-11-26T17:34:59.067Z,21.92
2022-11-26T17:36:36.495Z,24.27
2022-11-26T17:38:17.265Z,20.85
2022-11-26T17:39:49.307Z,20.95
2022-11-26T17:41:20.899Z,29.55
2022-11-26T17:42:52.958Z,24.30
2022-11-26T17:44:24.630Z,22.23
2022-11-26T17:45:58.140Z,22.30
2022-11-26T17:47:29.907Z,23.73
2022-11-26T17:49:02.757Z,23.70
2022-11-26T17:50:36.264Z,31.55
2022-11-26T17:52:08.430Z,31.42
2022-11-26T17:53:40.619Z,26.23
2022-11-26T17:55:13.537Z,50.25
2022-11-26T17:56:45.103Z,79.28
2022-11-26T17:58:16.691Z,56.53
2022-11-26T17:59:48.379Z,54.72
2022-11-26T18:01:20.557Z,47.10
2022-11-26T18:02:52.330Z,44.25
2022-11-26T18:04:24.093Z,58.38
2022-11-26T18:05:55.745Z,46.13
2022-11-26T18:07:27.371Z,37.80
2022-11-26T18:08:59.034Z,33.80
2022-11-26T18:10:30.680Z,40.03
2022-11-26T18:12:03.373Z,36.13
2022-11-26T18:13:35.005Z,30.92
2022-11-26T18:15:07.740Z,25.60
2022-11-26T18:16:40.309Z,29.45
2022-11-26T18:18:11.946Z,26.48
2022-11-26T18:19:43.972Z,28.23
2022-11-26T18:21:15.961Z,24.05
2022-11-26T18:22:53.778Z,28.73
2022-11-26T18:24:25.319Z,24.17
2022-11-26T18:25:56.932Z,37.47
2022-11-26T18:27:30.497Z,24.75
2022-11-26T18:29:02.855Z,28.70
2022-11-26T18:30:34.589Z,29.48
2022-11-26T18:32:06.252Z,35.65
2022-11-26T18:33:37.800Z,32.63
2022-11-26T18:35:09.705Z,32.72
2022-11-26T18:36:41.449Z,24.75
2022-11-26T18:38:13.053Z,27.73
2022-11-26T18:39:44.797Z,22.45
2022-11-26T18:41:16.677Z,25.52
2022-11-26T18:42:52.265Z,27.55
2022-11-26T18:44:24.224Z,20.08
2022-11-26T18:45:55.900Z,21.85
2022-11-26T18:47:27.612Z,19.23
2022-11-26T18:49:00.455Z,23.88
2022-11-26T18:50:31.977Z,24.13
2022-11-26T18:52:03.850Z,19.20
2022-11-26T18:53:35.954Z,19.48
2022-11-26T18:55:08.676Z,22.80
2022-11-26T18:56:40.271Z,22.98
2022-11-26T18:58:14.066Z,19.05
2022-11-26T18:59:46.771Z,17.55
2022-11-26T19:01:28.395Z,15.50
2022-11-26T19:03:01.185Z,17.58
2022-11-26T19:04:33.087Z,15.38
2022-11-26T19:06:05.539Z,16.95
2022-11-26T19:07:37.402Z,16.17
2022-11-26T19:09:16.101Z,19.15
2022-11-26T19:10:47.990Z,16.75
2022-11-26T19:12:19.668Z,18.80
2022-11-26T19:13:51.369Z,23.13
2022-11-26T19:15:23.004Z,30.42
2022-11-26T19:16:54.628Z,31.42
2022-11-26T19:18:26.287Z,35.83
2022-11-26T19:19:58.092Z,45.33
2022-11-26T19:21:31.319Z,52.75
2022-11-26T19:23:03.065Z,41.13
2022-11-26T19:24:34.674Z,32.78
2022-11-26T19:26:06.569Z,28.23
2022-11-26T19:27:38.388Z,36.45
2022-11-26T19:29:12.095Z,35.88
2022-11-26T19:30:43.768Z,39.33
2022-11-26T19:32:15.401Z,40.33
2022-11-26T19:33:47.991Z,40.08
2022-11-26T19:35:19.547Z,38.00
2022-11-26T19:36:53.864Z,29.95
2022-11-26T19:38:25.651Z,24.83
2022-11-26T19:39:57.260Z,31.08
2022-11-26T19:41:29.236Z,29.05
2022-11-26T19:43:00.793Z,29.20
2022-11-26T19:44:34.366Z,25.33
2022-11-26T19:46:07.396Z,26.33
2022-11-26T19:47:39.047Z,24.98
2022-11-26T19:49:12.561Z,27.52
2022-11-26T19:50:44.625Z,29.52
2022-11-26T19:52:16.245Z,29.95
2022-11-26T19:53:49.838Z,31.55
2022-11-26T19:55:21.388Z,28.50
2022-11-26T19:56:53.035Z,37.50
2022-11-26T19:58:24.954Z,27.73
2022-11-26T19:59:56.562Z,23.75
2022-11-26T20:01:30.977Z,25.98
2022-11-26T20:03:02.707Z,31.13
2022-11-26T20:04:34.493Z,26.10
2022-11-26T20:06:11.827Z,19.30
2022-11-26T20:07:45.226Z,25.42
2022-11-26T20:09:16.967Z,25.38
2022-11-26T20:10:50.039Z,20.25
2022-11-26T20:12:21.829Z,30.67
2022-11-26T20:13:54.028Z,27.48
2022-11-26T20:15:25.948Z,26.10
2022-11-26T20:17:00.963Z,25.55
2022-11-26T20:18:34.087Z,24.85
2022-11-26T20:20:06.419Z,28.15
2022-11-26T20:21:38.119Z,22.75
2022-11-26T20:23:09.715Z,22.48
2022-11-26T20:24:41.351Z,23.48
2022-11-26T20:26:25.603Z,26.08
2022-11-26T20:28:00.603Z,29.02
2022-11-26T20:29:32.416Z,22.73
2022-11-26T20:31:05.245Z,25.10
2022-11-26T20:32:38.225Z,29.15
2022-11-26T20:34:09.785Z,26.02
2022-11-26T20:35:43.039Z,32.25
2022-11-26T20:37:14.698Z,29.52
2022-11-26T20:38:47.187Z,23.38
2022-11-26T20:40:18.895Z,26.80
2022-11-26T20:41:51.138Z,24.83
2022-11-26T20:43:22.727Z,28.42
2022-11-26T20:44:54.420Z,38.55
2022-11-26T20:46:27.484Z,28.58
2022-11-26T20:47:59.304Z,29.83
2022-11-26T20:49:34.538Z,39.15
2022-11-26T20:51:10.458Z,47.50
2022-11-26T20:52:42.121Z,34.60
2022-11-26T20:54:13.761Z,33.80
2022-11-26T20:55:56.388Z,37.90
2022-11-26T20:57:28.012Z,33.17
2022-11-26T20:59:01.238Z,41.63
2022-11-26T21:00:32.850Z,34.75
2022-11-26T21:02:04.539Z,37.90
2022-11-26T21:03:36.235Z,32.05
2022-11-26T21:05:08.421Z,35.38
2022-11-26T21:06:42.661Z,36.20
2022-11-26T21:08:14.399Z,33.33
2022-11-26T21:09:47.650Z,31.45
2022-11-26T21:11:19.252Z,38.15
2022-11-26T21:12:50.916Z,27.65
2022-11-26T21:14:22.804Z,36.47
2022-11-26T21:15:54.663Z,38.30
2022-11-26T21:17:26.451Z,25.80
2022-11-26T21:18:59.803Z,42.35
2022-11-26T21:20:36.061Z,38.50
2022-11-26T21:22:08.255Z,25.08
2022-11-26T21:23:41.403Z,25.20
2022-11-26T21:25:13.028Z,27.52
2022-11-26T21:26:44.667Z,30.95
2022-11-26T21:28:19.520Z,27.65
2022-11-26T21:29:51.051Z,38.60
2022-11-26T21:31:23.831Z,44.35
2022-11-26T21:32:55.843Z,36.67
2022-11-26T21:34:27.433Z,46.67
2022-11-26T21:36:10.694Z,53.03
2022-11-26T21:37:42.262Z,63.70
2022-11-26T21:39:15.791Z,74.55
2022-11-26T21:40:47.360Z,88.10
2022-11-26T21:42:19.438Z,81.45
2022-11-26T21:43:51.892Z,89.47
2022-11-26T21:45:23.884Z,60.13
2022-11-26T21:46:55.585Z,48.78
2022-11-26T21:48:27.223Z,45.38
2022-11-26T21:49:58.820Z,42.03
2022-11-26T21:51:30.709Z,40.97
2022-11-26T21:53:02.472Z,40.17
2022-11-26T21:54:34.067Z,40.80
2022-11-26T21:56:12.330Z,42.97
2022-11-26T21:57:43.915Z,46.25
2022-11-26T21:59:15.609Z,46.25
2022-11-26T22:00:47.229Z,40.95
2022-11-26T22:02:18.947Z,47.38
2022-11-26T22:03:53.337Z,46.72
2022-11-26T22:05:25.142Z,40.75
2022-11-26T22:06:56.764Z,39.00
2022-11-26T22:08:28.583Z,49.45
2022-11-26T22:10:00.277Z,47.38
2022-11-26T22:11:36.026Z,47.92
2022-11-26T22:13:07.617Z,31.98
2022-11-26T22:14:39.270Z,30.70
2022-11-26T22:16:12.411Z,34.45
2022-11-26T22:17:44.137Z,38.67
2022-11-26T22:19:15.703Z,34.17
2022-11-26T22:20:53.799Z,34.10
2022-11-26T22:22:25.432Z,32.65
2022-11-26T22:23:58.210Z,35.22
2022-11-26T22:25:32.741Z,51.83
2022-11-26T22:27:04.368Z,56.08
2022-11-26T22:28:38.515Z,36.90
2022-11-26T22:30:10.407Z,42.85
2022-11-26T22:31:42.536Z,33.65
2022-11-26T22:33:14.259Z,40.28
2022-11-26T22:34:45.907Z,41.20
2022-11-26T22:36:17.631Z,43.38
2022-11-26T22:37:49.347Z,36.50
2022-11-26T22:39:21.175Z,34.25
2022-11-26T22:40:52.809Z,43.20
2022-11-26T22:42:24.523Z,37.65
2022-11-26T22:43:58.510Z,38.30
2022-11-26T22:45:30.754Z,41.97
2022-11-26T22:47:02.443Z,45.53
2022-11-26T22:48:35.152Z,43.05
2022-11-26T22:50:07.445Z,43.65
2022-11-26T22:51:39.322Z,51.00
2022-11-26T22:53:10.981Z,33.08
2022-11-26T22:54:42.538Z,43.72
2022-11-26T22:56:14.312Z,44.28
2022-11-26T22:57:45.866Z,43.25
2022-11-26T22:59:17.739Z,44.83
2022-11-26T23:00:52.347Z,36.92
2022-11-26T23:02:24.134Z,41.50
2022-11-26T23:03:57.452Z,38.65
2022-11-26T23:05:29.069Z,37.90
2022-11-26T23:07:00.740Z,45.78
2022-11-26T23:08:32.704Z,29.73
2022-11-26T23:10:17.507Z,42.10
2022-11-26T23:11:49.287Z,30.02
2022-11-26T23:13:21.010Z,43.00
2022-11-26T23:14:52.633Z,33.97
2022-11-26T23:16:26.818Z,21.25
2022-11-26T23:17:58.810Z,28.85
2022-11-26T23:19:30.472Z,39.03
2022-11-26T23:21:08.090Z,29.00
2022-11-26T23:22:40.319Z,27.63
2022-11-26T23:24:13.467Z,26.17
2022-11-26T23:25:45.050Z,24.38
2022-11-26T23:27:16.642Z,30.98
2022-11-26T23:28:49.176Z,25.83
2022-11-26T23:30:20.915Z,28.00
2022-11-26T23:31:52.859Z,27.35
2022-11-26T23:34:04.600Z,26.58
2022-11-26T23:35:36.251Z,44.28
2022-11-26T23:37:07.789Z,28.27
2022-11-26T23:38:39.783Z,22.85
2022-11-26T23:40:13.361Z,29.65
2022-11-26T23:41:44.995Z,30.40
2022-11-26T23:43:16.626Z,29.33
2022-11-26T23:44:48.288Z,36.85
2022-11-26T23:46:25.068Z,30.20
2022-11-26T23:47:56.911Z,46.17
2022-11-26T23:49:28.552Z,36.80
2022-11-26T23:51:00.942Z,35.92
2022-11-26T23:52:32.691Z,29.38
2022-11-26T23:54:04.482Z,29.10
2022-11-26T23:55:36.144Z,36.80
2022-11-26T23:57:11.897Z,31.50
2022-11-26T23:58:51.057Z,28.05
